Time;durP1;ratioP1;P1;durP2;ratioP2;P2;SDS_P1;SDS_P2;PMS_P1;PMS_P2;Temp;Humidity;BMP_temperature;BMP_pressure;BME280_temperature;BME280_humidity;BME280_pressure;Samples;Min_cycle;Max_cycle;Signal;HPM_P1;HPM_P2
2021/12/13 00:02:23;;;;;;;7.45;2.55;;;5.40;98.00;;;;;;5013830;28;20065;-75
2021/12/13 00:05:01;;;;;;;3.47;1.58;;;5.40;98.00;;;;;;5013539;28;20096;-75
2021/12/13 00:07:30;;;;;;;4.28;1.60;;;5.40;98.00;;;;;;5013877;28;20051;-78
2021/12/13 00:09:59;;;;;;;2.45;1.10;;;5.40;98.00;;;;;;5014395;28;20112;-76
2021/12/13 00:12:34;;;;;;;5.45;1.50;;;5.50;98.00;;;;;;5013650;28;20026;-76
2021/12/13 00:15:03;;;;;;;5.22;1.85;;;5.50;98.00;;;;;;5013719;28;20113;-78
2021/12/13 00:17:43;;;;;;;3.67;1.50;;;5.70;98.00;;;;;;5014521;28;20022;-77
2021/12/13 00:20:28;;;;;;;1.80;1.00;;;5.60;98.00;;;;;;5008845;28;20116;-77
2021/12/13 00:22:58;;;;;;;5.95;1.98;;;5.60;98.00;;;;;;5012265;28;20038;-77
2021/12/13 00:25:28;;;;;;;4.40;1.52;;;5.60;98.00;;;;;;5011178;28;20320;-76
2021/12/13 00:28:13;;;;;;;3.10;1.00;;;5.60;98.00;;;;;;5013522;28;20332;-76
2021/12/13 00:30:47;;;;;;;1.75;1.00;;;5.40;98.00;;;;;;5001642;28;20034;-77
2021/12/13 00:33:54;;;;;;;3.78;1.10;;;5.40;98.00;;;;;;5013740;28;20096;-76
2021/12/13 00:36:34;;;;;;;4.10;1.10;;;5.40;98.00;;;;;;4975806;28;20035;-77
2021/12/13 00:39:22;;;;;;;3.08;1.02;;;5.30;98.00;;;;;;4991498;28;20078;-76
2021/12/13 00:41:51;;;;;;;2.58;1.10;;;5.10;98.00;;;;;;5009323;28;20160;-76
2021/12/13 00:44:29;;;;;;;2.60;1.00;;;5.00;98.00;;;;;;5012300;28;20383;-77
2021/12/13 00:46:57;;;;;;;2.72;1.10;;;5.00;98.00;;;;;;5012272;28;20030;-77
2021/12/13 00:49:28;;;;;;;6.25;1.75;;;5.00;98.00;;;;;;5012823;28;20046;-77
2021/12/13 00:51:58;;;;;;;6.13;1.23;;;5.00;98.00;;;;;;5011103;28;20390;-77
2021/12/13 00:54:31;;;;;;;3.65;1.30;;;5.00;98.00;;;;;;5011515;28;20033;-77
2021/12/13 00:57:00;;;;;;;3.88;1.27;;;5.10;98.00;;;;;;5013993;28;20026;-77
2021/12/13 00:59:38;;;;;;;5.18;1.30;;;5.20;98.00;;;;;;5017334;28;20476;-76
2021/12/13 01:02:07;;;;;;;3.42;1.23;;;5.30;98.00;;;;;;5017677;28;20029;-76
2021/12/13 01:05:04;;;;;;;2.75;1.38;;;5.30;98.00;;;;;;5013647;28;20026;-77
2021/12/13 01:07:32;;;;;;;2.90;1.35;;;5.30;98.00;;;;;;5002948;28;20101;-77
2021/12/13 01:10:22;;;;;;;4.95;1.00;;;5.30;98.00;;;;;;5016660;28;20128;-76
2021/12/13 01:12:51;;;;;;;3.45;1.05;;;5.10;98.00;;;;;;5017823;28;20022;-77
2021/12/13 01:15:31;;;;;;;5.13;1.45;;;5.10;98.00;;;;;;5012256;28;20093;-76
2021/12/13 01:18:29;;;;;;;3.17;1.20;;;5.10;98.00;;;;;;5016236;28;20018;-76
2021/12/13 01:21:15;;;;;;;3.40;1.20;;;5.00;98.00;;;;;;5011385;28;20027;-77
2021/12/13 01:23:49;;;;;;;3.78;1.10;;;5.10;98.00;;;;;;5014470;28;20080;-76
2021/12/13 01:26:36;;;;;;;4.72;1.60;;;5.20;98.00;;;;;;5013952;28;20044;-76
2021/12/13 01:29:20;;;;;;;5.40;1.38;;;5.30;97.90;;;;;;5015965;28;20434;-76
2021/12/13 01:32:05;;;;;;;4.85;1.50;;;5.20;98.00;;;;;;5014782;28;20054;-77
2021/12/13 01:34:32;;;;;;;3.40;1.20;;;5.10;98.00;;;;;;5010239;28;20465;-76
2021/12/13 01:37:09;;;;;;;3.10;1.20;;;5.00;98.00;;;;;;5013715;28;20034;-76
2021/12/13 01:39:41;;;;;;;4.85;1.88;;;5.00;97.80;;;;;;5016544;28;20072;-76
2021/12/13 01:42:11;;;;;;;13.10;7.07;;;4.90;97.30;;;;;;5015340;28;20022;-77
2021/12/13 01:44:43;;;;;;;10.25;5.68;;;4.90;96.80;;;;;;5014677;28;20038;-76
2021/12/13 01:47:17;;;;;;;5.90;1.90;;;4.90;96.10;;;;;;5015378;28;20422;-76
2021/12/13 01:49:46;;;;;;;5.97;2.17;;;4.90;96.10;;;;;;5015559;28;20063;-76
2021/12/13 01:52:23;;;;;;;4.07;1.30;;;5.00;95.30;;;;;;5012655;28;20419;-76
2021/12/13 01:54:51;;;;;;;4.53;1.40;;;4.90;95.70;;;;;;5009815;28;20145;-77
2021/12/13 01:57:26;;;;;;;6.45;1.60;;;4.90;95.40;;;;;;5016094;28;20435;-77
2021/12/13 02:00:17;;;;;;;6.88;1.60;;;4.90;95.10;;;;;;5016379;28;20121;-77
2021/12/13 02:02:50;;;;;;;5.38;1.63;;;4.90;94.00;;;;;;5015921;28;20037;-77
2021/12/13 02:05:24;;;;;;;6.22;1.30;;;5.00;94.50;;;;;;5016820;28;20314;-77
2021/12/13 02:07:56;;;;;;;5.35;2.13;;;5.00;94.40;;;;;;5029499;28;20021;-77
2021/12/13 02:10:27;;;;;;;5.97;1.70;;;5.10;92.80;;;;;;5013869;28;20374;-76
2021/12/13 02:13:17;;;;;;;7.40;2.67;;;5.20;92.80;;;;;;5009735;28;20022;-77
2021/12/13 02:18:33;;;;;;;5.18;1.75;;;5.30;92.70;;;;;;5014961;28;20091;-77
2021/12/13 02:21:22;;;;;;;4.75;1.60;;;5.30;91.90;;;;;;5014749;28;20040;-77
2021/12/13 02:23:51;;;;;;;4.60;1.60;;;5.30;92.20;;;;;;5013806;28;20057;-76
2021/12/13 02:26:18;;;;;;;8.90;3.22;;;5.20;93.20;;;;;;5014490;28;20060;-77
2021/12/13 02:28:48;;;;;;;8.35;2.50;;;5.10;92.90;;;;;;5015137;28;20038;-77
2021/12/13 02:31:25;;;;;;;5.80;1.83;;;5.10;92.10;;;;;;5013196;28;20029;-76
2021/12/13 02:33:58;;;;;;;5.78;1.70;;;5.10;93.00;;;;;;5009047;28;20022;-77
2021/12/13 02:36:27;;;;;;;3.40;1.50;;;4.90;93.30;;;;;;5013258;28;20327;-78
2021/12/13 02:38:56;;;;;;;6.30;2.20;;;4.80;92.80;;;;;;5012373;28;20045;-77
2021/12/13 02:41:26;;;;;;;9.40;2.30;;;4.80;92.10;;;;;;5013015;28;20061;-77
2021/12/13 02:43:58;;;;;;;6.40;1.90;;;4.90;92.20;;;;;;5012524;28;20022;-77
2021/12/13 02:46:24;;;;;;;4.20;1.70;;;4.90;91.80;;;;;;5011009;28;20033;-77
2021/12/13 02:48:56;;;;;;;5.03;1.80;;;4.90;91.60;;;;;;5011401;28;20315;-76
2021/12/13 02:51:36;;;;;;;7.78;1.80;;;4.90;91.50;;;;;;5015019;28;20112;-76
2021/12/13 02:54:14;;;;;;;6.13;2.47;;;4.90;91.20;;;;;;5027288;28;20401;-75
2021/12/13 02:57:08;;;;;;;8.82;3.47;;;4.80;90.90;;;;;;5014789;28;20080;-76
2021/12/13 02:59:36;;;;;;;3.72;1.42;;;4.80;90.50;;;;;;5013837;28;20415;-76
2021/12/13 03:02:11;;;;;;;3.58;1.48;;;4.80;90.40;;;;;;5015551;28;20423;-77
2021/12/13 03:04:37;;;;;;;5.03;1.83;;;4.80;89.80;;;;;;5013242;28;20112;-76
2021/12/13 03:07:17;;;;;;;7.18;2.20;;;4.90;89.50;;;;;;5012809;28;20434;-77
2021/12/13 03:09:46;;;;;;;5.30;1.77;;;4.90;89.50;;;;;;5015157;28;20026;-77
2021/12/13 03:12:16;;;;;;;3.15;1.40;;;4.90;89.30;;;;;;5011991;28;20018;-77
2021/12/13 03:14:51;;;;;;;4.57;1.60;;;4.80;89.20;;;;;;5011784;28;20314;-78
2021/12/13 03:17:28;;;;;;;5.35;1.80;;;4.90;88.90;;;;;;5015126;28;20450;-77
2021/12/13 03:20:04;;;;;;;5.28;1.92;;;4.80;88.80;;;;;;5014092;28;20033;-76
2021/12/13 03:23:07;;;;;;;4.50;1.50;;;4.80;88.80;;;;;;5011711;28;20037;-76
2021/12/13 03:26:07;;;;;;;6.10;2.00;;;4.80;88.40;;;;;;5012485;28;20439;-77
2021/12/13 03:29:01;;;;;;;3.25;1.63;;;4.80;88.50;;;;;;5008349;28;20053;-77
2021/12/13 03:31:43;;;;;;;2.97;1.23;;;4.80;88.20;;;;;;5012158;28;20213;-76
2021/12/13 03:34:14;;;;;;;5.35;1.90;;;4.80;88.60;;;;;;5011871;28;20056;-76
2021/12/13 03:36:46;;;;;;;4.18;1.50;;;4.70;88.50;;;;;;5011631;28;20053;-76
2021/12/13 03:39:19;;;;;;;6.65;2.30;;;4.70;88.10;;;;;;5011524;28;20042;-77
2021/12/13 03:41:49;;;;;;;4.93;1.80;;;4.70;88.20;;;;;;5015129;28;20034;-77
2021/12/13 03:44:20;;;;;;;5.07;1.88;;;4.70;88.20;;;;;;5010272;28;20026;-77
2021/12/13 03:46:51;;;;;;;6.95;2.00;;;4.70;88.00;;;;;;5003949;28;20363;-77
2021/12/13 03:49:19;;;;;;;6.65;1.92;;;4.70;87.90;;;;;;5029128;28;20418;-77
2021/12/13 03:51:45;;;;;;;6.43;2.10;;;4.80;87.50;;;;;;5003084;28;20022;-77
2021/12/13 03:54:15;;;;;;;3.33;1.48;;;4.90;87.60;;;;;;5011552;28;20026;-76
2021/12/13 03:56:47;;;;;;;3.10;1.27;;;4.90;88.10;;;;;;4995124;28;20046;-77
2021/12/13 03:59:22;;;;;;;3.78;1.30;;;4.80;88.30;;;;;;5013633;28;20308;-77
2021/12/13 04:01:52;;;;;;;3.47;1.42;;;4.70;88.30;;;;;;5010191;28;20037;-76
2021/12/13 04:04:31;;;;;;;6.65;3.45;;;4.70;88.40;;;;;;5014620;28;20030;-76
2021/12/13 04:07:17;;;;;;;8.07;3.13;;;4.70;88.40;;;;;;5013172;28;20431;-76
2021/12/13 04:09:45;;;;;;;3.75;1.70;;;4.70;88.10;;;;;;5017624;28;20100;-77
2021/12/13 04:12:14;;;;;;;5.28;2.00;;;4.60;88.10;;;;;;5014395;28;20079;-76
2021/12/13 04:14:51;;;;;;;2.75;1.52;;;4.60;88.50;;;;;;5010398;28;20049;-76
2021/12/13 04:17:35;;;;;;;3.15;1.65;;;4.60;88.30;;;;;;5021157;28;20109;-76
2021/12/13 04:20:06;;;;;;;3.53;1.75;;;4.60;88.00;;;;;;5009252;28;20151;-77
2021/12/13 04:22:35;;;;;;;7.97;1.55;;;4.60;87.90;;;;;;5012912;28;20084;-77
2021/12/13 04:25:14;;;;;;;3.80;1.60;;;4.60;87.80;;;;;;5014385;28;20022;-76
2021/12/13 04:27:46;;;;;;;4.13;1.58;;;4.70;87.40;;;;;;5010399;28;20036;-76
2021/12/13 04:30:32;;;;;;;5.22;1.52;;;4.70;87.60;;;;;;5008479;28;20407;-77
2021/12/13 04:33:06;;;;;;;3.25;1.40;;;4.70;87.60;;;;;;5010626;28;20026;-77
2021/12/13 04:35:33;;;;;;;3.00;1.42;;;4.70;87.90;;;;;;5012429;28;20052;-77
2021/12/13 04:38:01;;;;;;;3.03;1.23;;;4.70;88.30;;;;;;5013378;28;20603;-76
2021/12/13 04:40:32;;;;;;;2.85;1.23;;;4.70;87.90;;;;;;5015848;28;20300;-76
2021/12/13 04:43:08;;;;;;;5.28;1.65;;;4.70;87.90;;;;;;5015329;28;20033;-76
2021/12/13 04:45:36;;;;;;;4.55;1.35;;;4.60;88.40;;;;;;5007240;28;20033;-77
2021/12/13 04:48:09;;;;;;;2.08;1.00;;;4.60;87.80;;;;;;5016421;28;20331;-78
2021/12/13 04:50:44;;;;;;;4.90;1.85;;;4.60;87.60;;;;;;5017138;28;20033;-77
2021/12/13 04:53:21;;;;;;;3.92;1.38;;;4.60;88.10;;;;;;5017127;28;20045;-77
2021/12/13 04:55:48;;;;;;;4.45;1.38;;;4.60;87.60;;;;;;5018507;28;20064;-77
2021/12/13 04:58:16;;;;;;;3.17;1.45;;;4.60;88.20;;;;;;5018568;28;20323;-76
2021/12/13 05:00:48;;;;;;;4.53;1.60;;;4.60;88.20;;;;;;5018084;28;20038;-76
2021/12/13 05:03:17;;;;;;;5.22;1.83;;;4.50;88.50;;;;;;5016165;28;20109;-77
2021/12/13 05:05:43;;;;;;;4.47;1.55;;;4.50;88.30;;;;;;5014448;28;20022;-76
2021/12/13 05:08:13;;;;;;;3.38;1.30;;;4.60;87.70;;;;;;5013883;28;20026;-76
2021/12/13 05:10:42;;;;;;;3.45;1.33;;;4.60;87.50;;;;;;5012926;28;20025;-76
2021/12/13 05:13:15;;;;;;;4.15;1.35;;;4.70;87.60;;;;;;5016005;28;20103;-77
2021/12/13 05:15:44;;;;;;;2.20;1.17;;;4.70;87.70;;;;;;5016284;28;20026;-77
2021/12/13 05:18:19;;;;;;;3.33;1.42;;;4.80;88.00;;;;;;5016500;28;20036;-77
2021/12/13 05:20:45;;;;;;;33.90;11.60;;;4.70;88.50;;;;;;5017071;28;20116;-77
2021/12/13 05:23:14;;;;;;;44.28;15.07;;;4.70;88.00;;;;;;5011876;28;20101;-77
2021/12/13 05:25:55;;;;;;;22.50;12.00;;;4.70;88.00;;;;;;5016512;28;20445;-77
2021/12/13 05:28:26;;;;;;;21.65;11.50;;;4.60;88.50;;;;;;5017352;28;20128;-77
2021/12/13 05:31:04;;;;;;;15.55;8.27;;;4.60;88.50;;;;;;5013430;28;20104;-77
2021/12/13 05:33:34;;;;;;;10.93;5.63;;;4.60;88.00;;;;;;5016396;28;20126;-76
2021/12/13 05:36:09;;;;;;;4.90;2.33;;;4.60;88.20;;;;;;5005305;28;20037;-77
2021/12/13 05:38:44;;;;;;;3.03;1.52;;;4.60;88.30;;;;;;5018112;28;20033;-77
2021/12/13 05:41:25;;;;;;;4.18;1.67;;;4.60;88.50;;;;;;5015098;28;20021;-77
2021/12/13 05:44:06;;;;;;;5.35;2.17;;;4.60;88.10;;;;;;5017692;28;20029;-76
2021/12/13 05:46:39;;;;;;;7.30;2.65;;;4.70;87.40;;;;;;5015849;28;20124;-75
2021/12/13 05:49:09;;;;;;;4.23;1.90;;;4.70;88.60;;;;;;5016412;28;20025;-76
2021/12/13 05:52:04;;;;;;;4.03;1.60;;;4.60;88.70;;;;;;5012328;28;20280;-76
2021/12/13 05:54:34;;;;;;;5.63;1.90;;;4.60;88.60;;;;;;5016467;28;20408;-76
2021/12/13 05:57:18;;;;;;;4.65;1.50;;;4.70;87.90;;;;;;5007205;28;20030;-78
2021/12/13 05:59:55;;;;;;;;;;;4.80;88.10;;;;;;5010796;28;20030;-77
2021/12/13 06:02:58;;;;;;;6.15;1.95;;;4.80;88.10;;;;;;5016635;28;19909;-77
2021/12/13 06:05:30;;;;;;;4.72;1.60;;;4.80;88.10;;;;;;5017137;28;20033;-78
2021/12/13 06:08:03;;;;;;;6.97;3.30;;;4.80;87.80;;;;;;5014440;28;20041;-78
2021/12/13 06:10:40;;;;;;;17.25;6.72;;;4.80;88.40;;;;;;5015771;28;20407;-77
2021/12/13 06:13:34;;;;;;;12.63;7.00;;;4.70;88.60;;;;;;5017891;28;20034;-78
2021/12/13 06:16:03;;;;;;;5.57;2.70;;;4.60;88.70;;;;;;5015492;28;20036;-77
2021/12/13 06:18:43;;;;;;;6.03;2.33;;;4.50;88.90;;;;;;5013167;28;20034;-77
2021/12/13 06:21:23;;;;;;;2.47;1.27;;;4.50;88.30;;;;;;5009735;28;20045;-78
2021/12/13 06:23:50;;;;;;;4.40;2.55;;;4.50;88.20;;;;;;5004323;28;20029;-78
2021/12/13 06:26:16;;;;;;;3.65;1.90;;;4.60;87.60;;;;;;5014766;28;20018;-77
2021/12/13 06:28:54;;;;;;;3.58;1.40;;;4.60;88.00;;;;;;5014504;28;20046;-76
2021/12/13 06:31:21;;;;;;;4.00;1.23;;;4.70;87.70;;;;;;5032556;28;20036;-75
2021/12/13 06:33:58;;;;;;;3.10;1.23;;;4.70;87.80;;;;;;5010613;28;20055;-77
2021/12/13 06:36:36;;;;;;;10.43;6.93;;;4.70;88.10;;;;;;5009906;28;20041;-76
2021/12/13 06:39:18;;;;;;;14.90;9.43;;;4.80;87.30;;;;;;5009817;28;20022;-76
2021/12/13 06:41:47;;;;;;;7.20;4.32;;;4.80;88.50;;;;;;5006438;28;20037;-76
2021/12/13 06:44:28;;;;;;;13.75;7.88;;;4.80;88.40;;;;;;5015613;28;20029;-77
2021/12/13 06:47:06;;;;;;;8.60;5.10;;;4.80;87.80;;;;;;5014819;28;20109;-77
2021/12/13 06:49:40;;;;;;;15.98;6.95;;;4.80;88.20;;;;;;5002250;28;20022;-77
2021/12/13 06:52:11;;;;;;;22.33;10.65;;;4.80;88.70;;;;;;5030718;28;20021;-77
2021/12/13 06:55:00;;;;;;;5.68;3.30;;;4.70;89.50;;;;;;5016062;28;20330;-77
2021/12/13 06:57:41;;;;;;;5.85;2.03;;;4.60;89.20;;;;;;5017090;28;20032;-77
2021/12/13 07:00:12;;;;;;;5.28;2.40;;;4.50;89.30;;;;;;5016048;28;20418;-77
2021/12/13 07:02:37;;;;;;;6.82;2.38;;;4.50;88.70;;;;;;5014598;28;20472;-77
2021/12/13 07:05:28;;;;;;;4.97;2.17;;;4.50;88.70;;;;;;5005183;28;20030;-77
2021/12/13 07:08:10;;;;;;;4.40;1.70;;;4.50;88.70;;;;;;5014158;28;20026;-77
2021/12/13 07:11:13;;;;;;;5.13;2.00;;;4.50;88.50;;;;;;5008298;28;20080;-76
2021/12/13 07:13:41;;;;;;;4.55;1.40;;;4.60;88.80;;;;;;4997536;28;20108;-76
2021/12/13 07:16:07;;;;;;;2.95;1.48;;;4.60;88.40;;;;;;5011477;28;20030;-77
2021/12/13 07:18:41;;;;;;;3.97;2.17;;;4.60;88.70;;;;;;4997585;28;20088;-75
2021/12/13 07:21:21;;;;;;;5.72;2.63;;;4.60;88.90;;;;;;4998459;28;20038;-75
2021/12/13 07:24:06;;;;;;;4.00;1.95;;;4.60;88.50;;;;;;4994921;28;20018;-76
2021/12/13 07:26:54;;;;;;;3.08;1.60;;;4.60;88.30;;;;;;5010989;28;20018;-77
2021/12/13 07:29:21;;;;;;;4.15;1.98;;;4.60;88.10;;;;;;4996280;28;20465;-76
2021/12/13 07:32:23;;;;;;;3.08;1.55;;;4.70;87.80;;;;;;5013302;28;20449;-76
2021/12/13 07:35:09;;;;;;;6.88;2.65;;;4.80;88.10;;;;;;4995022;28;20034;-76
2021/12/13 07:37:39;;;;;;;5.28;2.10;;;4.70;88.50;;;;;;4998634;28;20044;-77
2021/12/13 07:40:23;;;;;;;5.15;2.10;;;4.70;88.70;;;;;;5013229;28;20033;-76
2021/12/13 07:43:14;;;;;;;3.85;1.58;;;4.70;88.10;;;;;;5015349;28;20080;-76
2021/12/13 07:45:48;;;;;;;4.25;1.55;;;4.80;87.60;;;;;;5016115;28;20358;-76
2021/12/13 07:48:22;;;;;;;10.90;5.60;;;4.90;87.10;;;;;;5012729;28;20053;-76
2021/12/13 07:51:06;;;;;;;10.52;6.18;;;5.00;86.90;;;;;;5007202;28;20030;-76
2021/12/13 07:53:44;;;;;;;9.68;4.68;;;5.10;87.80;;;;;;5009684;28;20025;-77
2021/12/13 07:56:13;;;;;;;7.40;3.58;;;5.10;88.10;;;;;;5008893;28;20029;-76
2021/12/13 07:58:45;;;;;;;6.22;3.63;;;5.10;88.70;;;;;;5014725;28;20033;-76
2021/12/13 08:01:23;;;;;;;6.10;3.58;;;5.10;87.50;;;;;;5015758;28;20022;-76
2021/12/13 08:03:53;;;;;;;13.68;6.90;;;5.30;87.10;;;;;;5016034;28;20437;-77
2021/12/13 08:06:21;;;;;;;32.72;14.75;;;5.40;87.30;;;;;;5014249;28;20476;-76
2021/12/13 08:08:52;;;;;;;21.23;12.10;;;5.50;88.80;;;;;;5008139;28;20415;-76
2021/12/13 08:11:19;;;;;;;3.97;2.00;;;5.40;89.70;;;;;;5015084;28;20029;-77
2021/12/13 08:13:58;;;;;;;2.88;1.40;;;5.30;90.00;;;;;;5017483;28;20100;-76
2021/12/13 08:16:35;;;;;;;4.50;2.13;;;5.20;90.70;;;;;;5018899;28;20049;-77
2021/12/13 08:19:32;;;;;;;6.53;2.70;;;5.10;90.50;;;;;;5020125;28;20112;-77
2021/12/13 08:22:01;;;;;;;4.43;2.00;;;5.10;90.40;;;;;;5016545;28;20034;-75
2021/12/13 08:24:34;;;;;;;6.78;3.55;;;5.20;89.80;;;;;;5018376;28;20995;-77
2021/12/13 08:27:09;;;;;;;3.88;1.92;;;5.20;90.60;;;;;;5019131;28;20022;-75
2021/12/13 08:29:38;;;;;;;3.00;1.65;;;5.30;90.10;;;;;;5018677;28;20072;-76
2021/12/13 08:32:08;;;;;;;3.60;1.67;;;5.40;89.70;;;;;;5018687;28;20025;-75
2021/12/13 08:34:44;;;;;;;3.63;1.77;;;5.60;89.50;;;;;;5018805;28;20029;-75
2021/12/13 08:37:28;;;;;;;4.82;2.17;;;5.80;89.20;;;;;;5017229;28;20025;-76
2021/12/13 08:40:17;;;;;;;3.58;1.92;;;5.90;89.80;;;;;;5019332;28;20034;-77
2021/12/13 08:42:48;;;;;;;2.88;1.50;;;6.10;90.20;;;;;;5019335;28;20061;-77
2021/12/13 08:45:27;;;;;;;5.85;2.22;;;6.20;91.50;;;;;;5019410;28;20064;-75
2021/12/13 08:48:00;;;;;;;3.28;1.70;;;6.30;92.80;;;;;;5019391;28;20058;-77
2021/12/13 08:50:53;;;;;;;3.13;1.60;;;6.30;94.70;;;;;;5011624;28;20424;-76
2021/12/13 08:53:30;;;;;;;3.83;1.73;;;6.30;95.20;;;;;;5018426;28;20026;-76
2021/12/13 08:56:02;;;;;;;4.00;2.03;;;6.30;96.50;;;;;;5012132;28;20474;-74
2021/12/13 08:58:28;;;;;;;3.97;1.52;;;6.30;96.70;;;;;;5001488;28;20292;-74
2021/12/13 09:01:04;;;;;;;4.55;1.60;;;6.50;96.40;;;;;;5019383;28;20022;-76
2021/12/13 09:03:33;;;;;;;5.35;2.80;;;6.70;97.00;;;;;;5018566;28;20026;-75
2021/12/13 09:06:05;;;;;;;3.90;2.10;;;7.10;98.00;;;;;;5018977;28;20127;-77
2021/12/13 09:08:36;;;;;;;2.97;1.40;;;7.40;98.00;;;;;;5016623;28;20033;-77
2021/12/13 09:11:33;;;;;;;3.03;1.60;;;7.70;98.00;;;;;;5019113;28;20022;-78
2021/12/13 09:14:10;;;;;;;2.08;1.10;;;7.80;98.00;;;;;;5015063;28;20048;-76
2021/12/13 09:16:53;;;;;;;2.55;1.10;;;7.80;98.00;;;;;;5017689;28;20040;-77
2021/12/13 09:19:30;;;;;;;2.75;1.13;;;8.00;98.00;;;;;;5017887;28;20430;-77
2021/12/13 09:22:15;;;;;;;7.28;3.60;;;8.20;98.00;;;;;;5017029;28;20030;-76
2021/12/13 09:24:46;;;;;;;10.77;7.63;;;8.20;98.00;;;;;;5018327;28;20035;-78
2021/12/13 09:27:33;;;;;;;11.80;7.93;;;8.00;98.00;;;;;;5018177;28;20034;-77
2021/12/13 09:30:12;;;;;;;12.65;8.50;;;8.10;98.00;;;;;;5017360;28;20370;-75
2021/12/13 09:33:22;;;;;;;19.65;11.82;;;8.10;98.00;;;;;;5016801;28;20029;-75
2021/12/13 09:35:57;;;;;;;19.50;11.70;;;7.90;98.00;;;;;;5000529;28;20100;-76
2021/12/13 09:38:25;;;;;;;;;;;7.60;98.00;;;;;;5016839;28;20374;-76
2021/12/13 09:41:09;;;;;;;17.05;11.30;;;7.40;98.00;;;;;;5018381;28;19909;-76
2021/12/13 09:43:43;;;;;;;17.05;11.25;;;7.10;98.00;;;;;;5017691;28;20324;-76
2021/12/13 09:46:11;;;;;;;21.33;12.68;;;6.90;98.00;;;;;;5016416;28;20084;-76
2021/12/13 09:48:47;;;;;;;46.72;16.52;;;6.90;98.00;;;;;;5016971;28;20057;-77
2021/12/13 09:51:25;;;;;;;27.35;16.13;;;7.00;98.00;;;;;;5016817;28;20506;-76
2021/12/13 09:53:54;;;;;;;30.52;17.67;;;7.00;98.00;;;;;;5015533;28;20062;-76
2021/12/13 09:56:22;;;;;;;37.38;17.83;;;7.10;98.00;;;;;;5015674;28;20378;-76
2021/12/13 09:58:59;;;;;;;27.30;16.92;;;7.20;98.00;;;;;;5015496;28;20040;-76
2021/12/13 10:01:34;;;;;;;22.00;13.45;;;7.30;98.00;;;;;;5016278;28;20121;-75
2021/12/13 10:04:15;;;;;;;17.48;11.32;;;7.40;98.00;;;;;;5016443;28;20033;-75
2021/12/13 10:06:52;;;;;;;14.68;10.18;;;7.30;98.00;;;;;;5015801;28;20036;-76
2021/12/13 10:09:21;;;;;;;19.63;12.90;;;7.50;98.00;;;;;;5016384;28;20026;-76
2021/12/13 10:11:52;;;;;;;14.23;9.80;;;7.50;98.00;;;;;;5017095;28;20029;-76
2021/12/13 10:14:22;;;;;;;14.30;9.40;;;7.50;98.00;;;;;;5017874;28;20052;-76
2021/12/13 10:16:50;;;;;;;16.65;10.77;;;7.80;98.00;;;;;;5016687;28;20033;-76
2021/12/13 10:19:26;;;;;;;18.70;11.60;;;8.10;98.00;;;;;;5017833;28;20037;-77
2021/12/13 10:21:52;;;;;;;16.50;10.60;;;8.30;98.00;;;;;;5015825;28;20079;-76
2021/12/13 10:24:27;;;;;;;16.67;11.32;;;8.40;98.00;;;;;;5016191;28;20083;-76
2021/12/13 10:26:56;;;;;;;14.88;9.63;;;8.50;98.00;;;;;;5014555;28;20069;-76
2021/12/13 10:29:24;;;;;;;19.75;12.00;;;8.50;98.00;;;;;;5016396;28;20442;-76
2021/12/13 10:31:58;;;;;;;15.90;10.00;;;8.50;98.00;;;;;;5016370;28;20026;-75
2021/12/13 10:34:30;;;;;;;15.40;9.27;;;8.30;98.00;;;;;;5016313;28;20037;-76
2021/12/13 10:37:04;;;;;;;16.80;11.15;;;8.20;98.00;;;;;;5013987;28;20068;-75
2021/12/13 10:39:39;;;;;;;15.95;10.50;;;8.20;98.00;;;;;;5017472;28;20038;-75
2021/12/13 10:42:09;;;;;;;13.85;9.18;;;8.20;98.00;;;;;;5015502;28;20494;-76
2021/12/13 10:44:38;;;;;;;15.38;10.82;;;8.10;98.00;;;;;;5017661;28;20300;-76
2021/12/13 10:47:10;;;;;;;18.38;12.13;;;8.00;98.00;;;;;;5014485;28;20088;-76
2021/12/13 10:49:39;;;;;;;19.48;12.50;;;8.00;98.00;;;;;;5016583;28;20056;-76
2021/12/13 10:52:31;;;;;;;17.60;12.00;;;7.90;98.00;;;;;;5013798;28;20093;-76
2021/12/13 10:55:08;;;;;;;25.02;11.68;;;7.90;98.00;;;;;;5013584;28;20140;-75
2021/12/13 10:57:48;;;;;;;17.80;10.98;;;7.80;98.00;;;;;;5014964;28;20430;-76
2021/12/13 11:00:36;;;;;;;21.13;12.40;;;7.60;98.00;;;;;;5015931;28;20040;-75
2021/12/13 11:03:08;;;;;;;25.27;14.80;;;7.50;98.00;;;;;;5010734;28;20033;-75
2021/12/13 11:05:34;;;;;;;19.60;11.85;;;7.50;98.00;;;;;;5014931;28;20137;-76
2021/12/13 11:08:03;;;;;;;17.02;11.32;;;7.50;98.00;;;;;;5015520;28;20065;-77
2021/12/13 11:10:37;;;;;;;22.90;15.15;;;7.70;98.00;;;;;;5015833;28;20060;-76
2021/12/13 11:13:04;;;;;;;15.23;9.75;;;7.60;98.00;;;;;;5015784;28;20320;-75
2021/12/13 11:15:34;;;;;;;16.48;10.98;;;7.80;98.00;;;;;;5015581;28;20026;-76
2021/12/13 11:18:03;;;;;;;17.52;9.70;;;7.80;98.00;;;;;;5016763;28;20060;-76
2021/12/13 11:20:33;;;;;;;17.05;11.32;;;7.80;98.00;;;;;;5016080;28;20032;-75
2021/12/13 11:23:00;;;;;;;20.15;11.13;;;7.80;98.00;;;;;;5013905;28;20037;-75
2021/12/13 11:25:36;;;;;;;18.63;11.30;;;7.70;98.00;;;;;;5012699;28;20023;-76
2021/12/13 11:28:03;;;;;;;17.65;12.05;;;7.70;98.00;;;;;;5015656;28;20045;-76
2021/12/13 11:30:34;;;;;;;20.67;12.73;;;7.80;98.00;;;;;;5016561;28;20311;-76
2021/12/13 11:32:59;;;;;;;16.52;11.05;;;7.80;98.00;;;;;;5014776;28;20104;-75
2021/12/13 11:35:54;;;;;;;20.30;13.43;;;7.90;98.00;;;;;;5017915;28;20445;-78
2021/12/13 11:38:47;;;;;;;28.42;16.67;;;7.90;98.00;;;;;;5009061;28;20128;-75
2021/12/13 11:41:53;;;;;;;16.25;10.98;;;7.90;98.00;;;;;;5014966;28;20029;-76
2021/12/13 11:44:35;;;;;;;18.50;11.00;;;7.90;98.00;;;;;;5005546;28;20026;-76
2021/12/13 11:47:40;;;;;;;22.77;15.70;;;8.00;98.00;;;;;;5015974;28;20037;-75
2021/12/13 11:50:24;;;;;;;;;;;7.90;98.00;;;;;;5015590;28;20124;-75
2021/12/13 11:53:18;;;;;;;37.00;16.50;;;7.80;98.00;;;;;;5013324;28;19913;-75
2021/12/13 11:56:21;;;;;;;37.47;16.37;;;7.50;98.00;;;;;;5014758;28;20057;-75
2021/12/13 11:59:25;;;;;;;37.20;20.95;;;7.50;98.00;;;;;;5013885;28;20288;-75
2021/12/13 12:02:08;;;;;;;38.17;19.27;;;7.50;98.00;;;;;;5001722;28;20300;-77
2021/12/13 12:05:11;;;;;;;23.70;14.95;;;7.70;98.00;;;;;;5010780;28;20057;-77
2021/12/13 12:08:01;;;;;;;23.48;14.50;;;7.90;98.00;;;;;;5013803;28;20116;-77
2021/12/13 12:10:33;;;;;;;21.73;13.50;;;8.50;98.00;;;;;;5014292;28;20323;-76
2021/12/13 12:13:28;;;;;;;20.92;14.05;;;8.60;98.00;;;;;;5015405;28;20029;-77
2021/12/13 12:15:58;;;;;;;;;;;8.50;98.00;;;;;;5015404;28;20069;-76
2021/12/13 12:18:25;;;;;;;18.75;12.48;;;8.60;98.00;;;;;;5009082;28;19916;-76
2021/12/13 12:21:29;;;;;;;20.35;12.75;;;8.70;98.00;;;;;;4998008;28;20405;-76
2021/12/13 12:23:55;;;;;;;38.70;25.95;;;8.90;98.00;;;;;;5013499;28;20030;-76
2021/12/13 12:26:22;;;;;;;15.13;9.35;;;8.70;98.00;;;;;;5011145;28;20594;-76
2021/12/13 12:28:49;;;;;;;15.00;9.90;;;8.60;98.00;;;;;;5013434;28;20038;-77
2021/12/13 12:31:16;;;;;;;14.18;9.98;;;8.50;98.00;;;;;;5030396;28;20040;-77
2021/12/13 12:33:42;;;;;;;27.10;20.30;;;8.50;98.00;;;;;;5014712;28;20014;-76
2021/12/13 12:36:32;;;;;;;11.05;6.32;;;8.60;98.00;;;;;;5012970;28;20067;-76
2021/12/13 12:39:04;;;;;;;15.02;10.35;;;8.80;98.00;;;;;;5009309;28;20324;-77
2021/12/13 12:41:49;;;;;;;15.35;9.88;;;8.70;98.00;;;;;;5019128;28;20030;-76
2021/12/13 12:44:26;;;;;;;9.90;6.28;;;8.60;98.00;;;;;;5015583;28;20026;-77
2021/12/13 12:46:53;;;;;;;7.85;4.50;;;8.60;98.00;;;;;;5015119;28;20112;-77
2021/12/13 12:49:25;;;;;;;5.68;3.00;;;8.60;98.00;;;;;;5014462;28;20034;-77
2021/12/13 12:51:53;;;;;;;7.53;4.03;;;8.70;98.00;;;;;;5007584;28;20414;-76
2021/12/13 12:54:21;;;;;;;3.88;2.08;;;8.70;98.00;;;;;;5014546;28;20042;-76
2021/12/13 12:56:56;;;;;;;5.60;3.35;;;8.80;98.00;;;;;;5010567;28;20030;-76
2021/12/13 12:59:29;;;;;;;6.57;2.90;;;8.90;98.00;;;;;;5011597;28;20430;-77
2021/12/13 13:01:58;;;;;;;4.50;2.40;;;9.00;98.00;;;;;;5017342;28;20034;-77
2021/12/13 13:04:38;;;;;;;4.85;2.33;;;9.00;98.00;;;;;;5018393;28;20049;-76
2021/12/13 13:07:12;;;;;;;3.53;1.90;;;8.90;98.00;;;;;;5015509;28;20038;-76
2021/12/13 13:10:01;;;;;;;6.00;3.47;;;8.80;98.00;;;;;;5018587;28;20113;-77
2021/12/13 13:12:31;;;;;;;3.55;1.70;;;8.60;98.00;;;;;;5016706;28;20061;-77
2021/12/13 13:15:09;;;;;;;4.22;1.83;;;8.40;98.00;;;;;;5019004;28;20029;-76
2021/12/13 13:17:38;;;;;;;4.72;2.42;;;8.30;98.00;;;;;;5016190;28;20044;-76
2021/12/13 13:20:15;;;;;;;4.00;2.30;;;8.30;98.00;;;;;;5018421;28;20105;-76
2021/12/13 13:22:43;;;;;;;4.93;2.58;;;8.40;98.00;;;;;;5015567;28;20394;-77
2021/12/13 13:25:23;;;;;;;4.18;2.30;;;8.30;98.00;;;;;;5015719;28;20029;-76
2021/12/13 13:27:49;;;;;;;4.32;2.20;;;8.40;98.00;;;;;;5015859;28;20033;-76
2021/12/13 13:30:26;;;;;;;4.15;1.90;;;8.50;98.00;;;;;;5013146;28;20044;-76
2021/12/13 13:32:52;;;;;;;4.00;2.00;;;8.40;98.00;;;;;;5014793;28;20030;-76
2021/12/13 13:35:18;;;;;;;4.78;2.20;;;8.40;98.00;;;;;;5018674;28;20028;-77
2021/12/13 13:37:44;;;;;;;7.53;4.03;;;8.50;98.00;;;;;;5013069;28;20022;-76
2021/12/13 13:40:18;;;;;;;8.65;4.63;;;8.60;98.00;;;;;;5014372;28;20060;-76
2021/12/13 13:42:47;;;;;;;4.30;1.90;;;8.60;98.00;;;;;;5014986;28;20026;-76